createdAt,value
2018-10-06T00:00:55.825Z,80.39
2018-10-06T00:01:55.765Z,80.08
2018-10-06T00:02:55.761Z,80.49
2018-10-06T00:03:55.746Z,80.60
2018-10-06T00:04:55.765Z,80.80
2018-10-06T00:05:55.724Z,80.80
2018-10-06T00:06:55.745Z,80.53
2018-10-06T00:07:55.756Z,80.90
2018-10-06T00:08:55.697Z,80.60
2018-10-06T00:09:55.713Z,80.60
2018-10-06T00:10:55.673Z,81.04
2018-10-06T00:11:55.659Z,81.35
2018-10-06T00:12:55.651Z,81.65
2018-10-06T00:13:55.708Z,81.76
2018-10-06T00:14:55.657Z,82.07
2018-10-06T00:15:55.622Z,81.96
2018-10-06T00:16:55.616Z,81.86
2018-10-06T00:17:55.607Z,81.31
2018-10-06T00:18:55.584Z,81.96
2018-10-06T00:19:55.626Z,81.96
2018-10-06T00:20:55.564Z,81.96
2018-10-06T00:21:55.579Z,82.17
2018-10-06T00:22:55.546Z,81.86
2018-10-06T00:23:55.541Z,82.48
2018-10-06T00:24:55.551Z,82.48
2018-10-06T00:25:55.554Z,82.17
2018-10-06T00:26:55.505Z,82.48
2018-10-06T00:27:55.492Z,82.57
2018-10-06T00:28:55.498Z,82.17
2018-10-06T00:29:55.499Z,82.17
2018-10-06T00:30:55.461Z,82.23
2018-10-06T00:31:55.470Z,82.17
2018-10-06T00:32:55.438Z,82.17
2018-10-06T00:33:55.434Z,82.37
2018-10-06T00:34:55.457Z,82.78
2018-10-06T00:35:55.430Z,83.13
2018-10-06T00:36:55.397Z,83.09
2018-10-06T00:37:55.412Z,82.89
2018-10-06T00:38:55.381Z,83.19
2018-10-06T00:39:55.399Z,83.29
2018-10-06T00:40:55.362Z,83.50
2018-10-06T00:41:55.347Z,83.39
2018-10-06T00:42:55.361Z,83.09
2018-10-06T00:43:55.324Z,82.43
2018-10-06T00:44:55.338Z,82.98
2018-10-06T00:45:55.303Z,83.39
2018-10-06T00:46:55.294Z,83.29
2018-10-06T00:47:55.278Z,83.09
2018-10-06T00:48:55.330Z,82.98
2018-10-06T00:49:55.286Z,83.09
2018-10-06T00:50:55.245Z,83.15
2018-10-06T00:51:55.237Z,82.98
2018-10-06T00:52:55.240Z,82.89
2018-10-06T00:53:55.215Z,82.89
2018-10-06T00:54:55.255Z,83.50
2018-10-06T00:55:55.197Z,83.74
2018-10-06T00:56:55.185Z,83.74
2018-10-06T00:57:55.176Z,84.46
2018-10-06T00:58:55.168Z,84.19
2018-10-06T00:59:55.182Z,84.80
2018-10-06T01:00:55.157Z,84.80
2018-10-06T01:01:55.201Z,85.17
2018-10-06T01:02:55.129Z,83.95
2018-10-06T01:03:55.119Z,84.09
2018-10-06T01:04:55.171Z,84.60
2018-10-06T01:05:55.093Z,84.50
2018-10-06T01:06:55.091Z,85.87
2018-10-06T01:07:55.088Z,86.24
2018-10-06T01:08:55.056Z,86.24
2018-10-06T01:09:55.076Z,86.65
2018-10-06T01:10:55.037Z,86.14
2018-10-06T01:11:55.035Z,85.52
2018-10-06T01:12:55.036Z,84.80
2018-10-06T01:13:55.020Z,85.97
2018-10-06T01:14:55.027Z,87.92
2018-10-06T01:15:54.986Z,87.57
2018-10-06T01:16:54.975Z,89.00
2018-10-06T01:17:54.984Z,88.24
2018-10-06T01:18:54.953Z,86.98
2018-10-06T01:19:54.994Z,87.59
2018-10-06T01:20:54.932Z,86.46
2018-10-06T01:21:54.920Z,85.96
2018-10-06T01:22:54.910Z,85.71
2018-10-06T01:23:54.904Z,86.02
2018-10-06T01:24:54.924Z,86.02
2018-10-06T01:25:54.902Z,85.40
2018-10-06T01:26:54.890Z,84.89
2018-10-06T01:27:54.861Z,85.61
2018-10-06T01:28:54.870Z,85.81
2018-10-06T01:29:54.907Z,85.57
2018-10-06T01:30:54.849Z,85.77
2018-10-06T01:31:54.812Z,85.67
2018-10-06T01:32:54.811Z,84.85
2018-10-06T01:33:54.826Z,85.06
2018-10-06T01:34:54.808Z,85.06
2018-10-06T01:35:54.771Z,85.36
2018-10-06T01:36:54.758Z,84.14
2018-10-06T01:37:54.753Z,84.34
2018-10-06T01:38:54.738Z,84.85
2018-10-06T01:39:54.811Z,84.58
2018-10-06T01:40:54.722Z,84.58
2018-10-06T01:41:54.707Z,85.61
2018-10-06T01:42:54.701Z,86.12
2018-10-06T01:43:54.688Z,86.32
2018-10-06T01:44:54.706Z,87.65
2018-10-06T01:45:54.689Z,86.94
2018-10-06T01:46:54.743Z,86.43
2018-10-06T01:47:54.642Z,86.73
2018-10-06T01:48:54.633Z,87.45
2018-10-06T01:49:54.687Z,86.83
2018-10-06T01:50:54.649Z,87.04
2018-10-06T01:51:54.620Z,87.14
2018-10-06T01:52:54.598Z,86.94
2018-10-06T01:53:54.581Z,86.32
2018-10-06T01:54:54.614Z,86.94
2018-10-06T01:55:54.561Z,87.20
2018-10-06T01:56:54.566Z,86.90
2018-10-06T01:57:54.537Z,85.77
2018-10-06T01:58:54.536Z,86.63
2018-10-06T01:59:54.609Z,86.49
2018-10-06T02:00:54.545Z,86.63
2018-10-06T02:01:54.495Z,86.73
2018-10-06T02:02:54.498Z,86.73
2018-10-06T02:03:54.500Z,87.55
2018-10-06T02:04:54.506Z,87.24
2018-10-06T02:05:54.457Z,87.04
2018-10-06T02:06:54.450Z,87.14
2018-10-06T02:07:54.444Z,87.18
2018-10-06T02:08:54.419Z,86.98
2018-10-06T02:09:54.453Z,87.45
2018-10-06T02:10:54.427Z,87.49
2018-10-06T02:11:54.399Z,87.38
2018-10-06T02:12:54.433Z,87.18
2018-10-06T02:13:54.368Z,87.18
2018-10-06T02:14:54.413Z,87.18
2018-10-06T02:15:54.349Z,87.29
2018-10-06T02:16:54.339Z,87.49
2018-10-06T02:17:54.366Z,86.98
2018-10-06T02:18:54.317Z,87.02
2018-10-06T02:19:54.342Z,87.12
2018-10-06T02:20:54.293Z,87.22
2018-10-06T02:21:54.285Z,87.73
2018-10-06T02:22:54.343Z,87.12
2018-10-06T02:23:55.257Z,87.94
2018-10-06T02:24:54.278Z,87.12
2018-10-06T02:25:54.244Z,86.96
2018-10-06T02:26:54.233Z,87.98
2018-10-06T02:27:54.222Z,87.98
2018-10-06T02:28:54.218Z,87.98
2018-10-06T02:29:54.297Z,88.23
2018-10-06T02:30:54.194Z,88.64
2018-10-06T02:31:54.178Z,89.04
2018-10-06T02:32:54.175Z,88.84
2018-10-06T02:33:54.168Z,88.84
2018-10-06T02:34:54.229Z,88.84
2018-10-06T02:35:54.134Z,88.98
2018-10-06T02:36:54.160Z,88.84
2018-10-06T02:37:54.112Z,88.98
2018-10-06T02:38:54.102Z,89.09
2018-10-06T02:39:54.125Z,89.50
2018-10-06T02:40:54.098Z,89.60
2018-10-06T02:41:54.108Z,90.32
2018-10-06T02:42:54.062Z,90.32
2018-10-06T02:43:54.057Z,90.26
2018-10-06T02:44:54.066Z,90.26
2018-10-06T02:45:54.032Z,90.26
2018-10-06T02:46:54.020Z,90.32
2018-10-06T02:47:54.051Z,90.36
2018-10-06T02:48:53.998Z,91.18
2018-10-06T02:49:54.028Z,91.08
2018-10-06T02:50:53.996Z,90.46
2018-10-06T02:51:53.973Z,90.56
2018-10-06T02:52:53.955Z,90.16
2018-10-06T02:53:53.967Z,89.95
2018-10-06T02:54:53.961Z,90.46
2018-10-06T02:55:53.928Z,90.36
2018-10-06T02:56:53.919Z,91.28
2018-10-06T02:57:53.911Z,91.42
2018-10-06T02:58:53.903Z,90.91
2018-10-06T02:59:53.937Z,91.63
2018-10-06T03:00:53.872Z,91.53
2018-10-06T03:01:53.876Z,91.22
2018-10-06T03:02:53.862Z,91.80
2018-10-06T03:03:53.840Z,92.10
2018-10-06T03:04:53.856Z,91.90
2018-10-06T03:05:53.847Z,92.00
2018-10-06T03:06:53.820Z,91.80
2018-10-06T03:07:53.802Z,91.90
2018-10-06T03:08:53.786Z,91.59
2018-10-06T03:09:53.809Z,91.49
2018-10-06T03:10:53.777Z,91.08
2018-10-06T03:11:53.802Z,91.59
2018-10-06T03:12:53.792Z,91.80
2018-10-06T03:13:53.760Z,90.77
2018-10-06T03:14:53.771Z,91.08
2018-10-06T03:15:53.719Z,90.87
2018-10-06T03:16:53.704Z,91.18
2018-10-06T03:17:53.707Z,91.38
2018-10-06T03:18:53.684Z,91.69
2018-10-06T03:19:53.728Z,92.93
2018-10-06T03:20:53.660Z,92.93
2018-10-06T03:21:53.653Z,93.60
2018-10-06T03:22:53.642Z,92.98
2018-10-06T03:23:53.640Z,92.43
2018-10-06T03:24:53.657Z,92.02
2018-10-06T03:25:53.646Z,91.91
2018-10-06T03:26:53.647Z,91.71
2018-10-06T03:27:53.657Z,91.36
2018-10-06T03:28:53.588Z,90.13
2018-10-06T03:29:53.610Z,90.13
2018-10-06T03:30:53.556Z,89.51
2018-10-06T03:31:53.551Z,89.31
2018-10-06T03:32:53.534Z,89.21
2018-10-06T03:33:53.540Z,89.47
2018-10-06T03:34:53.545Z,89.51
2018-10-06T03:35:53.501Z,88.59
2018-10-06T03:36:53.492Z,89.00
2018-10-06T03:37:53.482Z,89.42
2018-10-06T03:38:53.504Z,89.21
2018-10-06T03:39:53.510Z,89.51
2018-10-06T03:40:53.448Z,89.72
2018-10-06T03:41:53.446Z,89.72
2018-10-06T03:42:53.518Z,89.51
2018-10-06T03:43:53.428Z,89.72
2018-10-06T03:44:53.441Z,89.51
2018-10-06T03:45:53.437Z,89.83
2018-10-06T03:46:53.440Z,89.83
2018-10-06T03:47:53.384Z,90.13
2018-10-06T03:48:53.408Z,90.64
2018-10-06T03:49:53.708Z,90.23
2018-10-06T03:50:53.363Z,90.23
2018-10-06T03:51:53.356Z,89.83
2018-10-06T03:52:53.384Z,90.23
2018-10-06T03:53:53.349Z,90.03
2018-10-06T03:54:53.388Z,89.62
2018-10-06T03:55:53.298Z,90.09
2018-10-06T03:56:53.319Z,89.78
2018-10-06T03:57:53.308Z,89.47
2018-10-06T03:58:53.267Z,89.47
2018-10-06T03:59:53.280Z,89.06
2018-10-06T04:00:53.255Z,88.86
2018-10-06T04:01:53.247Z,89.11
2018-10-06T04:02:53.246Z,89.58
2018-10-06T04:03:53.212Z,89.78
2018-10-06T04:04:53.235Z,89.17
2018-10-06T04:05:53.192Z,89.27
2018-10-06T04:06:53.178Z,89.51
2018-10-06T04:07:53.215Z,89.72
2018-10-06T04:08:53.160Z,89.72
2018-10-06T04:09:53.176Z,89.83
2018-10-06T04:10:53.135Z,90.23
2018-10-06T04:11:53.126Z,89.51
2018-10-06T04:12:53.125Z,89.92
2018-10-06T04:13:53.104Z,90.13
2018-10-06T04:14:53.207Z,89.83
2018-10-06T04:15:53.111Z,89.72
2018-10-06T04:16:53.073Z,89.92
2018-10-06T04:17:53.061Z,90.13
2018-10-06T04:18:53.051Z,90.23
2018-10-06T04:19:53.073Z,90.28
2018-10-06T04:20:53.037Z,90.37
2018-10-06T04:21:53.029Z,91.30
2018-10-06T04:22:53.022Z,91.20
2018-10-06T04:23:53.014Z,90.93
2018-10-06T04:24:53.014Z,91.30
2018-10-06T04:25:52.980Z,91.65
2018-10-06T04:26:52.977Z,91.86
2018-10-06T04:27:52.968Z,92.06
2018-10-06T04:28:52.949Z,92.47
2018-10-06T04:29:52.978Z,92.06
2018-10-06T04:30:52.951Z,92.36
2018-10-06T04:31:52.926Z,92.06
2018-10-06T04:32:52.902Z,92.16
2018-10-06T04:33:52.904Z,92.22
2018-10-06T04:34:52.913Z,91.71
2018-10-06T04:35:52.879Z,91.61
2018-10-06T04:36:52.883Z,91.82
2018-10-06T04:37:52.852Z,91.82
2018-10-06T04:38:52.841Z,91.82
2018-10-06T04:39:52.859Z,91.71
2018-10-06T04:40:52.817Z,91.82
2018-10-06T04:41:52.809Z,91.71
2018-10-06T04:42:52.820Z,91.82
2018-10-06T04:43:52.797Z,91.82
2018-10-06T04:44:52.809Z,91.82
2018-10-06T04:45:52.774Z,91.91
2018-10-06T04:46:52.775Z,91.71
2018-10-06T04:47:52.744Z,91.86
2018-10-06T04:48:52.772Z,91.40
2018-10-06T04:49:52.769Z,91.96
2018-10-06T04:50:52.714Z,92.78
2018-10-06T04:51:52.709Z,92.68
2018-10-06T04:52:52.745Z,92.78
2018-10-06T04:53:52.698Z,92.78
2018-10-06T04:54:52.754Z,92.78
2018-10-06T04:55:52.673Z,92.82
2018-10-06T04:56:52.724Z,92.88
2018-10-06T04:57:52.674Z,93.02
2018-10-06T04:58:52.632Z,93.33
2018-10-06T04:59:52.674Z,93.49
2018-10-06T05:00:52.610Z,93.49
2018-10-06T05:01:52.612Z,93.23
2018-10-06T05:02:52.615Z,93.49
2018-10-06T05:03:52.588Z,93.54
2018-10-06T05:04:53.544Z,93.33
2018-10-06T05:05:52.554Z,93.90
2018-10-06T05:06:52.548Z,94.11
2018-10-06T05:07:52.536Z,93.85
2018-10-06T05:08:52.545Z,93.70
2018-10-06T05:09:52.581Z,93.60
2018-10-06T05:10:52.510Z,93.85
2018-10-06T05:11:52.492Z,94.15
2018-10-06T05:12:52.493Z,94.87
2018-10-06T05:13:52.471Z,94.73
2018-10-06T05:14:52.497Z,94.32
2018-10-06T05:15:52.452Z,94.32
2018-10-06T05:16:52.472Z,93.80
2018-10-06T05:17:52.434Z,93.90
2018-10-06T05:18:52.421Z,94.01
2018-10-06T05:19:52.458Z,93.80
2018-10-06T05:20:52.412Z,93.80
2018-10-06T05:21:52.409Z,94.11
2018-10-06T05:22:52.392Z,93.60
2018-10-06T05:23:52.416Z,93.70
2018-10-06T05:24:52.400Z,93.45
2018-10-06T05:25:52.352Z,93.60
2018-10-06T05:26:52.478Z,93.29
2018-10-06T05:27:52.384Z,93.08
2018-10-06T05:28:52.320Z,93.08
2018-10-06T05:29:52.381Z,93.29
2018-10-06T05:30:52.298Z,93.90
2018-10-06T05:31:52.293Z,94.21
2018-10-06T05:32:52.354Z,94.73
2018-10-06T05:33:52.305Z,94.36
2018-10-06T05:34:52.291Z,94.42
2018-10-06T05:35:52.266Z,94.05
2018-10-06T05:36:52.232Z,94.42
2018-10-06T05:37:52.228Z,94.26
2018-10-06T05:38:52.247Z,94.36
2018-10-06T05:39:52.233Z,94.46
2018-10-06T05:40:52.227Z,94.77
2018-10-06T05:41:52.186Z,94.73
2018-10-06T05:42:52.193Z,94.87
2018-10-06T05:43:52.166Z,94.77
2018-10-06T05:44:52.212Z,94.98
2018-10-06T05:45:52.137Z,94.83
2018-10-06T05:46:52.131Z,94.62
2018-10-06T05:47:52.140Z,94.87
2018-10-06T05:48:52.173Z,94.62
2018-10-06T05:49:52.156Z,94.77
2018-10-06T05:50:52.084Z,94.67
2018-10-06T05:51:52.079Z,94.62
2018-10-06T05:52:52.083Z,94.73
2018-10-06T05:53:52.070Z,94.98
2018-10-06T05:54:52.082Z,94.62
2018-10-06T05:55:52.075Z,94.62
2018-10-06T05:56:52.025Z,94.83
2018-10-06T05:57:52.019Z,94.62
2018-10-06T05:58:52.047Z,94.73
2018-10-06T05:59:52.028Z,94.73
2018-10-06T06:00:51.987Z,94.11
2018-10-06T06:01:51.976Z,94.32
2018-10-06T06:02:51.964Z,94.42
2018-10-06T06:03:52.019Z,94.32
2018-10-06T06:04:51.992Z,94.32
2018-10-06T06:05:51.952Z,94.52
2018-10-06T06:06:51.921Z,94.73
2018-10-06T06:07:51.939Z,94.32
2018-10-06T06:08:51.895Z,94.11
2018-10-06T06:09:52.022Z,94.01
2018-10-06T06:10:51.895Z,94.01
2018-10-06T06:11:51.907Z,94.62
2018-10-06T06:12:51.885Z,94.11
2018-10-06T06:13:51.878Z,94.17
2018-10-06T06:14:51.867Z,94.42
2018-10-06T06:15:51.826Z,94.17
2018-10-06T06:16:51.814Z,94.27
2018-10-06T06:17:51.812Z,94.27
2018-10-06T06:18:51.812Z,93.76
2018-10-06T06:19:51.861Z,93.86
2018-10-06T06:20:51.817Z,93.66
2018-10-06T06:21:51.763Z,93.55
2018-10-06T06:22:51.787Z,93.10
2018-10-06T06:23:51.794Z,93.45
2018-10-06T06:24:51.794Z,93.51
2018-10-06T06:25:51.759Z,93.10
2018-10-06T06:26:51.777Z,92.90
2018-10-06T06:27:51.698Z,92.28
2018-10-06T06:28:51.693Z,93.16
2018-10-06T06:29:51.740Z,92.90
2018-10-06T06:30:51.747Z,92.55
2018-10-06T06:31:51.684Z,92.34
2018-10-06T06:32:51.665Z,91.83
2018-10-06T06:33:51.671Z,92.14
2018-10-06T06:34:51.663Z,91.99
2018-10-06T06:35:51.633Z,91.69
2018-10-06T06:36:51.616Z,91.69
2018-10-06T06:37:51.592Z,91.58
2018-10-06T06:38:51.589Z,91.38
2018-10-06T06:39:51.605Z,90.56
2018-10-06T06:40:51.569Z,90.72
2018-10-06T06:41:51.554Z,91.23
2018-10-06T06:42:51.564Z,90.72
2018-10-06T06:43:51.558Z,90.31
2018-10-06T06:44:51.551Z,90.11
2018-10-06T06:45:51.518Z,89.80
2018-10-06T06:46:51.498Z,90.06
2018-10-06T06:47:51.508Z,89.65
2018-10-06T06:48:51.487Z,89.86
2018-10-06T06:49:51.522Z,89.65
2018-10-06T06:50:51.473Z,89.25
2018-10-06T06:51:51.446Z,89.76
2018-10-06T06:52:51.440Z,89.86
2018-10-06T06:53:51.421Z,89.35
2018-10-06T06:54:51.478Z,89.82
2018-10-06T06:55:51.402Z,89.76
2018-10-06T06:56:51.421Z,89.61
2018-10-06T06:57:51.413Z,89.41
2018-10-06T06:58:51.402Z,89.31
2018-10-06T06:59:51.394Z,88.79
2018-10-06T07:00:51.362Z,89.31
2018-10-06T07:01:51.385Z,89.17
2018-10-06T07:02:51.376Z,89.06
2018-10-06T07:03:51.327Z,89.26
2018-10-06T07:04:51.363Z,89.26
2018-10-06T07:05:51.376Z,88.96
2018-10-06T07:06:51.288Z,89.06
2018-10-06T07:07:51.293Z,88.96
2018-10-06T07:08:51.271Z,89.06
2018-10-06T07:09:51.307Z,89.17
2018-10-06T07:10:51.252Z,89.26
2018-10-06T07:11:51.233Z,88.51
2018-10-06T07:12:51.233Z,88.61
2018-10-06T07:13:51.258Z,88.61
2018-10-06T07:14:51.305Z,88.61
2018-10-06T07:15:51.211Z,87.85
2018-10-06T07:16:51.211Z,87.24
2018-10-06T07:17:51.209Z,87.55
2018-10-06T07:18:51.167Z,86.73
2018-10-06T07:19:51.215Z,86.83
2018-10-06T07:20:51.161Z,87.24
2018-10-06T07:21:51.135Z,86.69
2018-10-06T07:22:51.901Z,86.90
2018-10-06T07:23:51.397Z,86.80
2018-10-06T07:24:51.136Z,86.39
2018-10-06T07:25:51.114Z,86.39
2018-10-06T07:26:51.094Z,86.18
2018-10-06T07:27:51.083Z,86.39
2018-10-06T07:28:51.551Z,86.65
2018-10-06T07:29:51.072Z,86.65
2018-10-06T07:30:51.049Z,85.94
2018-10-06T07:31:51.047Z,85.53
2018-10-06T07:32:51.025Z,85.53
2018-10-06T07:33:51.006Z,84.82
2018-10-06T07:34:51.005Z,85.43
2018-10-06T07:35:51.011Z,85.43
2018-10-06T07:36:50.970Z,84.61
2018-10-06T07:37:50.961Z,84.37
2018-10-06T07:38:50.947Z,84.82
2018-10-06T07:39:50.944Z,84.31
2018-10-06T07:40:50.969Z,84.06
2018-10-06T07:41:50.940Z,84.06
2018-10-06T07:42:50.943Z,84.06
2018-10-06T07:43:50.936Z,83.96
2018-10-06T07:44:50.938Z,84.06
2018-10-06T07:45:50.916Z,84.67
2018-10-06T07:46:50.863Z,83.56
2018-10-06T07:47:50.856Z,84.12
2018-10-06T07:48:50.841Z,83.35
2018-10-06T07:49:50.847Z,83.92
2018-10-06T07:50:50.852Z,83.92
2018-10-06T07:51:50.812Z,83.21
2018-10-06T07:52:50.799Z,83.37
2018-10-06T07:53:50.792Z,83.42
2018-10-06T07:54:50.781Z,83.07
2018-10-06T07:55:50.837Z,82.56
2018-10-06T07:56:50.950Z,82.56
2018-10-06T07:57:50.760Z,82.76
2018-10-06T07:58:50.746Z,82.32
2018-10-06T07:59:50.757Z,82.52
2018-10-06T08:00:50.790Z,82.52
2018-10-06T08:01:50.703Z,81.91
2018-10-06T08:02:50.693Z,82.42
2018-10-06T08:03:50.692Z,81.87
2018-10-06T08:04:50.758Z,81.67
2018-10-06T08:05:50.811Z,80.65
2018-10-06T08:06:50.651Z,80.45
2018-10-06T08:07:50.655Z,80.35
2018-10-06T08:08:51.012Z,79.70
2018-10-06T08:09:50.649Z,80.11
2018-10-06T08:10:50.637Z,80.11
2018-10-06T08:11:50.595Z,79.29
2018-10-06T08:12:50.593Z,79.90
2018-10-06T08:13:50.615Z,79.60
2018-10-06T08:14:50.573Z,79.25
2018-10-06T08:15:50.662Z,79.25
2018-10-06T08:16:50.562Z,79.25
2018-10-06T08:17:50.556Z,79.36
2018-10-06T08:18:50.575Z,79.25
2018-10-06T08:19:50.511Z,79.77
2018-10-06T08:20:50.539Z,78.51
2018-10-06T08:21:50.505Z,78.51
2018-10-06T08:22:50.488Z,77.70
2018-10-06T08:23:50.545Z,77.90
2018-10-06T08:24:50.473Z,78.37
2018-10-06T08:25:50.484Z,77.59
2018-10-06T08:26:50.448Z,78.00
2018-10-06T08:27:50.427Z,77.45
2018-10-06T08:28:50.424Z,77.15
2018-10-06T08:29:50.444Z,77.66
2018-10-06T08:30:50.443Z,77.22
2018-10-06T08:31:50.383Z,76.24
2018-10-06T08:32:50.429Z,77.22
2018-10-06T08:33:50.434Z,76.71
2018-10-06T08:34:50.362Z,76.20
2018-10-06T08:35:50.385Z,76.40
2018-10-06T08:36:50.338Z,75.66
2018-10-06T08:37:50.374Z,76.10
2018-10-06T08:38:50.328Z,75.56
2018-10-06T08:39:50.316Z,75.15
2018-10-06T08:40:50.364Z,76.06
2018-10-06T08:41:50.296Z,74.85
2018-10-06T08:42:50.508Z,75.52
2018-10-06T08:43:50.279Z,75.86
2018-10-06T08:44:50.245Z,75.35
2018-10-06T08:45:50.279Z,75.01
2018-10-06T08:46:50.230Z,74.71
2018-10-06T08:47:50.215Z,74.21
2018-10-06T08:48:50.213Z,74.00
2018-10-06T08:49:50.266Z,73.56
2018-10-06T08:50:50.251Z,71.73
2018-10-06T08:51:50.173Z,72.24
2018-10-06T08:52:50.184Z,72.96
2018-10-06T08:53:50.152Z,72.96
2018-10-06T08:54:50.147Z,73.16
2018-10-06T08:55:50.315Z,72.81
2018-10-06T08:56:50.120Z,72.61
2018-10-06T08:57:50.109Z,73.12
2018-10-06T08:58:50.099Z,73.12
2018-10-06T08:59:50.086Z,73.12
2018-10-06T09:00:50.488Z,72.81
2018-10-06T09:01:50.067Z,72.28
2018-10-06T09:02:50.057Z,71.97
2018-10-06T09:03:50.047Z,72.28
2018-10-06T09:04:50.041Z,73.09
2018-10-06T09:05:50.054Z,72.78
2018-10-06T09:06:50.018Z,72.17
2018-10-06T09:07:50.027Z,71.88
2018-10-06T09:08:50.019Z,71.67
2018-10-06T09:09:49.980Z,72.34
2018-10-06T09:10:50.056Z,73.05
2018-10-06T09:11:49.972Z,70.93
2018-10-06T09:12:49.953Z,70.93
2018-10-06T09:13:49.946Z,70.22
2018-10-06T09:14:49.945Z,69.89
2018-10-06T09:15:49.945Z,68.67
2018-10-06T09:16:49.970Z,69.68
2018-10-06T09:17:49.972Z,68.33
2018-10-06T09:18:49.898Z,68.54
2018-10-06T09:19:49.876Z,68.23
2018-10-06T09:20:49.874Z,68.63
2018-10-06T09:21:49.865Z,67.02
2018-10-06T09:22:49.896Z,66.78
2018-10-06T09:23:49.857Z,66.58
2018-10-06T09:24:49.834Z,66.99
2018-10-06T09:25:49.812Z,66.25
2018-10-06T09:26:49.804Z,66.48
2018-10-06T09:27:49.791Z,66.08
2018-10-06T09:28:49.874Z,66.35
2018-10-06T09:29:49.772Z,66.55
2018-10-06T09:30:49.761Z,65.92
2018-10-06T09:31:49.750Z,65.41
2018-10-06T09:32:49.752Z,64.94
2018-10-06T09:33:49.730Z,66.12
2018-10-06T09:34:49.771Z,66.86
2018-10-06T09:35:49.707Z,66.62
2018-10-06T09:36:49.699Z,66.72
2018-10-06T09:37:49.691Z,66.62
2018-10-06T09:38:49.685Z,66.62
2018-10-06T09:39:49.668Z,66.42
2018-10-06T09:40:49.702Z,66.12
2018-10-06T09:41:50.064Z,67.02
2018-10-06T09:42:49.746Z,66.42
2018-10-06T09:43:49.629Z,66.32
2018-10-06T09:44:49.666Z,66.32
2018-10-06T09:45:49.634Z,65.92
2018-10-06T09:46:49.593Z,66.12
2018-10-06T09:47:49.618Z,66.22
2018-10-06T09:48:49.571Z,66.29
2018-10-06T09:49:49.587Z,66.69
2018-10-06T09:50:49.583Z,66.39
2018-10-06T09:51:49.544Z,66.08
2018-10-06T09:52:49.533Z,66.19
2018-10-06T09:53:49.591Z,66.16
2018-10-06T09:54:49.506Z,66.56
2018-10-06T09:55:49.496Z,66.36
2018-10-06T09:56:49.517Z,67.77
2018-10-06T09:57:49.476Z,66.36
2018-10-06T09:58:49.464Z,65.25
2018-10-06T09:59:49.462Z,65.05
2018-10-06T10:00:49.465Z,65.32
2018-10-06T10:01:49.504Z,65.92
2018-10-06T10:02:49.420Z,64.92
2018-10-06T10:03:49.417Z,65.72
2018-10-06T10:04:49.615Z,65.72
2018-10-06T10:05:49.455Z,64.81
2018-10-06T10:06:49.405Z,64.58
2018-10-06T10:07:49.436Z,64.58
2018-10-06T10:08:49.368Z,65.42
2018-10-06T10:09:50.014Z,64.78
2018-10-06T10:10:49.337Z,64.58
2018-10-06T10:11:49.361Z,64.89
2018-10-06T10:12:49.438Z,64.07
2018-10-06T10:13:49.330Z,64.18
2018-10-06T10:14:49.295Z,63.98
2018-10-06T10:15:49.315Z,65.49
2018-10-06T10:16:49.366Z,64.58
2018-10-06T10:17:49.581Z,63.37
2018-10-06T10:18:49.275Z,63.67
2018-10-06T10:19:49.237Z,63.37
2018-10-06T10:20:49.244Z,65.16
2018-10-06T10:21:49.321Z,64.05
2018-10-06T10:22:49.289Z,64.25
2018-10-06T10:23:49.274Z,64.35
2018-10-06T10:24:49.183Z,64.05
2018-10-06T10:25:49.174Z,64.42
2018-10-06T10:26:49.211Z,64.62
2018-10-06T10:27:49.185Z,65.53
2018-10-06T10:28:49.243Z,64.82
2018-10-06T10:29:49.167Z,65.30
2018-10-06T10:30:49.211Z,64.49
2018-10-06T10:31:49.206Z,64.69
2018-10-06T10:32:49.132Z,63.89
2018-10-06T10:33:49.100Z,63.79
2018-10-06T10:34:49.079Z,62.27
2018-10-06T10:35:49.075Z,62.55
2018-10-06T10:36:49.097Z,62.75
2018-10-06T10:37:49.083Z,62.85
2018-10-06T10:38:49.034Z,62.35
2018-10-06T10:39:49.067Z,62.24
2018-10-06T10:40:49.029Z,62.15
2018-10-06T10:41:49.005Z,61.94
2018-10-06T10:42:49.036Z,62.45
2018-10-06T10:43:49.097Z,61.04
2018-10-06T10:44:48.973Z,61.54
2018-10-06T10:45:49.018Z,61.54
2018-10-06T10:46:48.964Z,61.24
2018-10-06T10:47:48.978Z,61.85
2018-10-06T10:48:48.970Z,62.72
2018-10-06T10:49:48.918Z,61.71
2018-10-06T10:50:48.961Z,62.22
2018-10-06T10:51:48.971Z,62.02
2018-10-06T10:52:48.923Z,60.98
2018-10-06T10:53:48.897Z,60.98
2018-10-06T10:54:48.912Z,60.68
2018-10-06T10:55:48.857Z,62.08
2018-10-06T10:56:48.896Z,60.28
2018-10-06T10:57:49.024Z,61.08
2018-10-06T10:58:48.831Z,61.25
2018-10-06T10:59:49.005Z,59.75
2018-10-06T11:00:48.807Z,59.75
2018-10-06T11:01:48.810Z,59.34
2018-10-06T11:02:48.827Z,58.42
2018-10-06T11:03:48.810Z,59.32
2018-10-06T11:04:48.831Z,58.86
2018-10-06T11:05:48.756Z,56.10
2018-10-06T11:06:48.820Z,55.12
2018-10-06T11:07:48.777Z,52.94
2018-10-06T11:08:48.723Z,52.67
2018-10-06T11:09:48.756Z,50.70
2018-10-06T11:10:48.704Z,48.31
2018-10-06T11:11:48.727Z,47.21
2018-10-06T11:12:48.703Z,46.69
2018-10-06T11:13:48.675Z,47.47
2018-10-06T11:14:49.462Z,46.25
2018-10-06T11:15:48.645Z,46.41
2018-10-06T11:16:48.635Z,46.16
2018-10-06T11:17:48.653Z,46.06
2018-10-06T11:18:48.615Z,44.25
2018-10-06T11:19:48.606Z,44.06
2018-10-06T11:20:48.601Z,44.04
2018-10-06T11:21:48.617Z,43.12
2018-10-06T11:22:48.620Z,43.20
2018-10-06T11:23:49.437Z,42.58
2018-10-06T11:24:48.648Z,43.38
2018-10-06T11:25:48.539Z,41.60
2018-10-06T11:26:48.552Z,43.00
2018-10-06T11:27:48.578Z,42.09
2018-10-06T11:28:48.555Z,41.91
2018-10-06T11:29:48.500Z,41.91
2018-10-06T11:30:48.496Z,42.31
2018-10-06T11:31:48.529Z,42.71
2018-10-06T11:32:49.129Z,42.78
2018-10-06T11:33:48.483Z,42.19
2018-10-06T11:34:48.506Z,43.06
2018-10-06T11:35:48.444Z,42.43
2018-10-06T11:36:48.431Z,42.43
2018-10-06T11:37:48.987Z,41.12
2018-10-06T11:38:48.435Z,41.00
2018-10-06T11:39:48.396Z,41.59
2018-10-06T11:40:48.409Z,40.50
2018-10-06T11:41:48.385Z,39.89
2018-10-06T11:42:49.440Z,40.66
2018-10-06T11:43:48.428Z,38.89
2018-10-06T11:44:48.342Z,38.79
2018-10-06T11:45:48.338Z,39.18
2018-10-06T11:46:48.319Z,40.45
2018-10-06T11:47:48.336Z,39.84
2018-10-06T11:48:48.302Z,38.56
2018-10-06T11:49:48.389Z,38.06
2018-10-06T11:50:48.278Z,38.75
2018-10-06T11:51:48.276Z,37.87
2018-10-06T11:52:48.268Z,38.10
2018-10-06T11:53:48.254Z,38.61
2018-10-06T11:54:48.239Z,38.82
2018-10-06T11:55:48.502Z,41.00
2018-10-06T11:56:48.232Z,39.91
2018-10-06T11:57:48.256Z,40.31
2018-10-06T11:58:48.342Z,39.22
2018-10-06T11:59:48.211Z,39.32
2018-10-06T12:00:48.221Z,40.70
2018-10-06T12:01:48.198Z,38.73
2018-10-06T12:02:48.157Z,40.07
2018-10-06T12:03:48.150Z,39.18
2018-10-06T12:04:48.183Z,38.96
2018-10-06T12:05:48.191Z,38.57
2018-10-06T12:06:48.156Z,37.78
2018-10-06T12:07:48.135Z,37.09
2018-10-06T12:08:48.113Z,38.67
2018-10-06T12:09:48.162Z,36.40
2018-10-06T12:10:48.069Z,37.62
2018-10-06T12:11:48.075Z,37.01
2018-10-06T12:12:48.043Z,36.63
2018-10-06T12:13:48.100Z,38.39
2018-10-06T12:14:48.069Z,37.70
2018-10-06T12:15:48.030Z,37.41
2018-10-06T12:16:48.014Z,38.00
2018-10-06T12:17:48.001Z,38.00
2018-10-06T12:18:47.984Z,39.18
2018-10-06T12:19:48.508Z,39.18
2018-10-06T12:20:47.996Z,36.99
2018-10-06T12:21:47.956Z,36.60
2018-10-06T12:22:47.941Z,36.88
2018-10-06T12:23:47.932Z,37.37
2018-10-06T12:24:48.094Z,37.09
2018-10-06T12:25:47.934Z,37.37
2018-10-06T12:26:47.951Z,36.96
2018-10-06T12:27:48.068Z,36.57
2018-10-06T12:28:47.908Z,37.26
2018-10-06T12:29:47.865Z,35.46
2018-10-06T12:30:48.122Z,36.23
2018-10-06T12:31:47.863Z,36.33
2018-10-06T12:32:47.908Z,35.54
2018-10-06T12:33:47.938Z,35.48
2018-10-06T12:34:47.898Z,36.21
2018-10-06T12:35:47.842Z,36.02
2018-10-06T12:36:47.834Z,36.25
2018-10-06T12:37:47.794Z,36.36
2018-10-06T12:38:47.910Z,36.77
2018-10-06T12:39:48.129Z,35.86
2018-10-06T12:40:47.847Z,36.54
2018-10-06T12:41:47.760Z,38.20
2018-10-06T12:42:47.763Z,36.80
2018-10-06T12:43:47.734Z,37.19
2018-10-06T12:44:47.858Z,35.83
2018-10-06T12:45:47.743Z,38.29
2018-10-06T12:46:47.772Z,35.93
2018-10-06T12:47:47.959Z,37.09
2018-10-06T12:48:47.704Z,36.58
2018-10-06T12:49:47.662Z,35.99
2018-10-06T12:50:47.647Z,36.38
2018-10-06T12:51:47.666Z,35.02
2018-10-06T12:52:47.630Z,37.30